sensor_id;sensor_type;location;lat;lon;timestamp;temperature;humidity
70214;DHT22;60138;55.808;37.078;2022-11-20T00:00:08;-1.34;77.27
70214;DHT22;60138;55.808;37.078;2022-11-20T00:02:34;-1.33;77.41
70214;DHT22;60138;55.808;37.078;2022-11-20T00:04:59;-1.32;77.29
70214;DHT22;60138;55.808;37.078;2022-11-20T00:07:25;-1.33;77.35
70214;DHT22;60138;55.808;37.078;2022-11-20T00:09:51;-1.33;77.28
70214;DHT22;60138;55.808;37.078;2022-11-20T00:12:16;-1.33;77.34
70214;DHT22;60138;55.808;37.078;2022-11-20T00:14:42;-1.32;77.21
70214;DHT22;60138;55.808;37.078;2022-11-20T00:17:08;-1.32;77.25
70214;DHT22;60138;55.808;37.078;2022-11-20T00:19:33;-1.32;77.16
70214;DHT22;60138;55.808;37.078;2022-11-20T00:21:59;-1.30;77.19
70214;DHT22;60138;55.808;37.078;2022-11-20T00:24:25;-1.30;77.24
70214;DHT22;60138;55.808;37.078;2022-11-20T00:26:50;-1.32;77.19
70214;DHT22;60138;55.808;37.078;2022-11-20T00:29:16;-1.31;77.20
70214;DHT22;60138;55.808;37.078;2022-11-20T00:31:42;-1.31;77.23
70214;DHT22;60138;55.808;37.078;2022-11-20T00:34:09;-1.31;77.20
70214;DHT22;60138;55.808;37.078;2022-11-20T00:36:35;-1.31;77.19
70214;DHT22;60138;55.808;37.078;2022-11-20T00:39:01;-1.31;77.14
70214;DHT22;60138;55.808;37.078;2022-11-20T00:41:28;-1.32;77.13
70214;DHT22;60138;55.808;37.078;2022-11-20T00:43:55;-1.33;77.18
70214;DHT22;60138;55.808;37.078;2022-11-20T00:46:23;-1.33;77.13
70214;DHT22;60138;55.808;37.078;2022-11-20T00:48:48;-1.32;77.10
70214;DHT22;60138;55.808;37.078;2022-11-20T00:51:16;-1.32;77.00
70214;DHT22;60138;55.808;37.078;2022-11-20T00:53:43;-1.35;76.94
70214;DHT22;60138;55.808;37.078;2022-11-20T00:56:17;-1.34;77.02
70214;DHT22;60138;55.808;37.078;2022-11-20T00:58:45;-1.33;76.98
70214;DHT22;60138;55.808;37.078;2022-11-20T01:01:15;-1.35;76.98
70214;DHT22;60138;55.808;37.078;2022-11-20T01:03:43;-1.34;76.95
70214;DHT22;60138;55.808;37.078;2022-11-20T01:08:39;-1.31;76.92
70214;DHT22;60138;55.808;37.078;2022-11-20T01:11:11;-1.30;76.80
70214;DHT22;60138;55.808;37.078;2022-11-20T01:13:38;-1.32;76.76
70214;DHT22;60138;55.808;37.078;2022-11-20T01:16:08;-1.33;76.79
70214;DHT22;60138;55.808;37.078;2022-11-20T01:18:34;-1.32;76.79
70214;DHT22;60138;55.808;37.078;2022-11-20T01:21:05;-1.32;76.75
70214;DHT22;60138;55.808;37.078;2022-11-20T01:23:36;-1.34;76.72
70214;DHT22;60138;55.808;37.078;2022-11-20T01:26:08;-1.32;76.74
70214;DHT22;60138;55.808;37.078;2022-11-20T01:28:34;-1.33;76.66
70214;DHT22;60138;55.808;37.078;2022-11-20T01:31:00;-1.32;76.66
70214;DHT22;60138;55.808;37.078;2022-11-20T01:33:27;-1.33;76.60
70214;DHT22;60138;55.808;37.078;2022-11-20T01:35:53;-1.33;76.58
70214;DHT22;60138;55.808;37.078;2022-11-20T01:38:19;-1.34;76.57
70214;DHT22;60138;55.808;37.078;2022-11-20T01:40:45;-1.33;76.61
70214;DHT22;60138;55.808;37.078;2022-11-20T01:43:17;-1.33;76.59
70214;DHT22;60138;55.808;37.078;2022-11-20T01:46:01;-1.33;76.57
70214;DHT22;60138;55.808;37.078;2022-11-20T01:48:37;-1.32;76.51
70214;DHT22;60138;55.808;37.078;2022-11-20T01:51:06;-1.33;76.59
70214;DHT22;60138;55.808;37.078;2022-11-20T01:53:36;-1.32;76.54
70214;DHT22;60138;55.808;37.078;2022-11-20T01:56:04;-1.34;76.54
70214;DHT22;60138;55.808;37.078;2022-11-20T01:58:33;-1.33;76.47
70214;DHT22;60138;55.808;37.078;2022-11-20T02:01:00;-1.35;76.38
70214;DHT22;60138;55.808;37.078;2022-11-20T02:03:26;-1.35;76.47
70214;DHT22;60138;55.808;37.078;2022-11-20T02:08:21;-1.38;76.47
70214;DHT22;60138;55.808;37.078;2022-11-20T02:10:48;-1.34;76.44
70214;DHT22;60138;55.808;37.078;2022-11-20T02:13:14;-1.33;76.49
70214;DHT22;60138;55.808;37.078;2022-11-20T02:15:41;-1.32;76.52
70214;DHT22;60138;55.808;37.078;2022-11-20T02:18:07;-1.31;76.43
70214;DHT22;60138;55.808;37.078;2022-11-20T02:20:34;-1.32;76.34
70214;DHT22;60138;55.808;37.078;2022-11-20T02:24:07;-1.32;76.32
70214;DHT22;60138;55.808;37.078;2022-11-20T02:26:13;-1.30;76.29
70214;DHT22;60138;55.808;37.078;2022-11-20T02:28:39;-1.31;76.31
70214;DHT22;60138;55.808;37.078;2022-11-20T02:31:05;-1.29;76.40
70214;DHT22;60138;55.808;37.078;2022-11-20T02:33:31;-1.29;76.29
70214;DHT22;60138;55.808;37.078;2022-11-20T02:35:57;-1.31;76.24
70214;DHT22;60138;55.808;37.078;2022-11-20T02:38:23;-1.30;76.17
70214;DHT22;60138;55.808;37.078;2022-11-20T02:40:48;-1.31;76.19
70214;DHT22;60138;55.808;37.078;2022-11-20T02:43:15;-1.30;76.18
70214;DHT22;60138;55.808;37.078;2022-11-20T02:45:41;-1.31;76.05
70214;DHT22;60138;55.808;37.078;2022-11-20T02:48:07;-1.34;76.04
70214;DHT22;60138;55.808;37.078;2022-11-20T02:50:33;-1.35;76.03
70214;DHT22;60138;55.808;37.078;2022-11-20T02:53:01;-1.39;76.10
70214;DHT22;60138;55.808;37.078;2022-11-20T02:55:27;-1.38;76.09
70214;DHT22;60138;55.808;37.078;2022-11-20T02:57:53;-1.36;76.14
70214;DHT22;60138;55.808;37.078;2022-11-20T03:00:18;-1.38;76.12
70214;DHT22;60138;55.808;37.078;2022-11-20T03:02:44;-1.38;76.13
70214;DHT22;60138;55.808;37.078;2022-11-20T03:05:10;-1.38;76.07
70214;DHT22;60138;55.808;37.078;2022-11-20T03:07:36;-1.38;76.02
70214;DHT22;60138;55.808;37.078;2022-11-20T03:10:01;-1.39;76.03
70214;DHT22;60138;55.808;37.078;2022-11-20T03:12:28;-1.39;76.12
70214;DHT22;60138;55.808;37.078;2022-11-20T03:14:54;-1.39;76.09
70214;DHT22;60138;55.808;37.078;2022-11-20T03:17:20;-1.36;76.12
70214;DHT22;60138;55.808;37.078;2022-11-20T03:19:45;-1.36;76.03
70214;DHT22;60138;55.808;37.078;2022-11-20T03:22:11;-1.38;75.88
70214;DHT22;60138;55.808;37.078;2022-11-20T03:24:37;-1.42;75.88
70214;DHT22;60138;55.808;37.078;2022-11-20T03:27:03;-1.41;75.96
70214;DHT22;60138;55.808;37.078;2022-11-20T03:29:28;-1.41;75.91
70214;DHT22;60138;55.808;37.078;2022-11-20T03:31:54;-1.40;75.98
70214;DHT22;60138;55.808;37.078;2022-11-20T03:34:20;-1.38;76.10
70214;DHT22;60138;55.808;37.078;2022-11-20T03:36:45;-1.38;76.09
70214;DHT22;60138;55.808;37.078;2022-11-20T03:39:12;-1.39;76.04
70214;DHT22;60138;55.808;37.078;2022-11-20T03:41:40;-1.39;76.07
70214;DHT22;60138;55.808;37.078;2022-11-20T03:44:08;-1.40;76.07
70214;DHT22;60138;55.808;37.078;2022-11-20T03:46:34;-1.40;76.12
70214;DHT22;60138;55.808;37.078;2022-11-20T03:49:00;-1.38;76.05
70214;DHT22;60138;55.808;37.078;2022-11-20T03:51:33;-1.41;75.99
70214;DHT22;60138;55.808;37.078;2022-11-20T03:54:02;-1.43;75.86
70214;DHT22;60138;55.808;37.078;2022-11-20T03:56:31;-1.48;75.77
70214;DHT22;60138;55.808;37.078;2022-11-20T03:58:57;-1.49;75.73
70214;DHT22;60138;55.808;37.078;2022-11-20T04:01:28;-1.54;75.85
70214;DHT22;60138;55.808;37.078;2022-11-20T04:03:56;-1.54;75.82
70214;DHT22;60138;55.808;37.078;2022-11-20T04:06:27;-1.56;75.83
70214;DHT22;60138;55.808;37.078;2022-11-20T04:08:59;-1.58;75.92
70214;DHT22;60138;55.808;37.078;2022-11-20T04:11:29;-1.56;75.97
70214;DHT22;60138;55.808;37.078;2022-11-20T04:13:58;-1.57;76.05
70214;DHT22;60138;55.808;37.078;2022-11-20T04:16:25;-1.56;76.09
70214;DHT22;60138;55.808;37.078;2022-11-20T04:18:55;-1.55;76.18
70214;DHT22;60138;55.808;37.078;2022-11-20T04:21:21;-1.56;76.12
70214;DHT22;60138;55.808;37.078;2022-11-20T04:23:47;-1.55;76.13
70214;DHT22;60138;55.808;37.078;2022-11-20T04:26:13;-1.54;76.13
70214;DHT22;60138;55.808;37.078;2022-11-20T04:28:39;-1.56;76.21
70214;DHT22;60138;55.808;37.078;2022-11-20T04:31:13;-1.56;75.92
70214;DHT22;60138;55.808;37.078;2022-11-20T04:33:40;-1.58;75.96
70214;DHT22;60138;55.808;37.078;2022-11-20T04:36:20;-1.56;75.98
70214;DHT22;60138;55.808;37.078;2022-11-20T04:38:46;-1.56;75.92
70214;DHT22;60138;55.808;37.078;2022-11-20T04:41:17;-1.56;75.95
70214;DHT22;60138;55.808;37.078;2022-11-20T04:43:47;-1.56;75.79
70214;DHT22;60138;55.808;37.078;2022-11-20T04:46:12;-1.59;75.79
70214;DHT22;60138;55.808;37.078;2022-11-20T04:48:38;-1.60;75.63
70214;DHT22;60138;55.808;37.078;2022-11-20T04:51:04;-1.59;75.74
70214;DHT22;60138;55.808;37.078;2022-11-20T04:53:30;-1.58;75.84
70214;DHT22;60138;55.808;37.078;2022-11-20T04:56:00;-1.61;75.79
70214;DHT22;60138;55.808;37.078;2022-11-20T04:58:26;-1.63;75.74
70214;DHT22;60138;55.808;37.078;2022-11-20T05:00:52;-1.63;75.80
70214;DHT22;60138;55.808;37.078;2022-11-20T05:03:17;-1.64;75.98
70214;DHT22;60138;55.808;37.078;2022-11-20T05:05:43;-1.64;75.93
70214;DHT22;60138;55.808;37.078;2022-11-20T05:08:09;-1.63;75.95
70214;DHT22;60138;55.808;37.078;2022-11-20T05:10:35;-1.62;76.05
70214;DHT22;60138;55.808;37.078;2022-11-20T05:13:01;-1.60;76.06
70214;DHT22;60138;55.808;37.078;2022-11-20T05:15:26;-1.59;76.07
70214;DHT22;60138;55.808;37.078;2022-11-20T05:17:53;-1.58;76.02
70214;DHT22;60138;55.808;37.078;2022-11-20T05:20:19;-1.59;75.96
70214;DHT22;60138;55.808;37.078;2022-11-20T05:22:45;-1.57;76.05
70214;DHT22;60138;55.808;37.078;2022-11-20T05:25:11;-1.54;76.11
70214;DHT22;60138;55.808;37.078;2022-11-20T05:27:38;-1.53;76.02
70214;DHT22;60138;55.808;37.078;2022-11-20T05:30:05;-1.53;75.92
70214;DHT22;60138;55.808;37.078;2022-11-20T05:32:31;-1.54;75.78
70214;DHT22;60138;55.808;37.078;2022-11-20T05:34:56;-1.56;75.70
70214;DHT22;60138;55.808;37.078;2022-11-20T05:37:22;-1.58;75.70
70214;DHT22;60138;55.808;37.078;2022-11-20T05:39:48;-1.57;75.70
70214;DHT22;60138;55.808;37.078;2022-11-20T05:42:13;-1.58;75.68
70214;DHT22;60138;55.808;37.078;2022-11-20T05:44:39;-1.57;75.76
70214;DHT22;60138;55.808;37.078;2022-11-20T05:47:05;-1.56;75.70
70214;DHT22;60138;55.808;37.078;2022-11-20T05:49:31;-1.56;75.76
70214;DHT22;60138;55.808;37.078;2022-11-20T05:51:57;-1.55;75.77
70214;DHT22;60138;55.808;37.078;2022-11-20T05:54:23;-1.52;75.80
70214;DHT22;60138;55.808;37.078;2022-11-20T05:56:48;-1.50;75.77
70214;DHT22;60138;55.808;37.078;2022-11-20T05:59:14;-1.52;75.67
70214;DHT22;60138;55.808;37.078;2022-11-20T06:01:40;-1.50;75.59
70214;DHT22;60138;55.808;37.078;2022-11-20T06:04:06;-1.50;75.70
70214;DHT22;60138;55.808;37.078;2022-11-20T06:06:31;-1.47;75.62
70214;DHT22;60138;55.808;37.078;2022-11-20T06:08:57;-1.46;75.67
70214;DHT22;60138;55.808;37.078;2022-11-20T06:11:23;-1.43;75.70
70214;DHT22;60138;55.808;37.078;2022-11-20T06:13:49;-1.41;75.72
70214;DHT22;60138;55.808;37.078;2022-11-20T06:16:17;-1.39;75.67
70214;DHT22;60138;55.808;37.078;2022-11-20T06:18:44;-1.38;75.66
70214;DHT22;60138;55.808;37.078;2022-11-20T06:21:16;-1.35;75.64
70214;DHT22;60138;55.808;37.078;2022-11-20T06:23:42;-1.33;75.61
70214;DHT22;60138;55.808;37.078;2022-11-20T06:26:15;-1.31;75.71
70214;DHT22;60138;55.808;37.078;2022-11-20T06:28:41;-1.27;75.69
70214;DHT22;60138;55.808;37.078;2022-11-20T06:31:07;-1.23;75.75
70214;DHT22;60138;55.808;37.078;2022-11-20T06:33:36;-1.21;75.63
70214;DHT22;60138;55.808;37.078;2022-11-20T06:36:02;-1.21;75.46
70214;DHT22;60138;55.808;37.078;2022-11-20T06:38:28;-1.19;75.45
70214;DHT22;60138;55.808;37.078;2022-11-20T06:40:54;-1.17;75.50
70214;DHT22;60138;55.808;37.078;2022-11-20T06:43:21;-1.13;75.56
70214;DHT22;60138;55.808;37.078;2022-11-20T06:45:54;-1.08;75.44
70214;DHT22;60138;55.808;37.078;2022-11-20T06:48:22;-1.06;75.31
70214;DHT22;60138;55.808;37.078;2022-11-20T06:50:48;-1.05;75.29
70214;DHT22;60138;55.808;37.078;2022-11-20T06:53:14;-1.05;75.39
70214;DHT22;60138;55.808;37.078;2022-11-20T06:55:45;-1.02;75.28
70214;DHT22;60138;55.808;37.078;2022-11-20T06:58:15;-0.99;75.37
70214;DHT22;60138;55.808;37.078;2022-11-20T07:00:41;-0.95;75.38
70214;DHT22;60138;55.808;37.078;2022-11-20T07:03:08;-0.95;75.08
70214;DHT22;60138;55.808;37.078;2022-11-20T07:05:35;-0.94;75.05
70214;DHT22;60138;55.808;37.078;2022-11-20T07:08:02;-0.89;75.17
70214;DHT22;60138;55.808;37.078;2022-11-20T07:10:28;-0.87;75.31
70214;DHT22;60138;55.808;37.078;2022-11-20T07:12:55;-0.83;75.34
70214;DHT22;60138;55.808;37.078;2022-11-20T07:15:23;-0.76;75.34
70214;DHT22;60138;55.808;37.078;2022-11-20T07:17:49;-0.74;75.28
70214;DHT22;60138;55.808;37.078;2022-11-20T07:20:15;-0.71;75.25
70214;DHT22;60138;55.808;37.078;2022-11-20T07:22:42;-0.69;75.28
70214;DHT22;60138;55.808;37.078;2022-11-20T07:25:08;-0.64;75.38
70214;DHT22;60138;55.808;37.078;2022-11-20T07:27:34;-0.59;75.43
70214;DHT22;60138;55.808;37.078;2022-11-20T07:30:01;-0.57;75.37
70214;DHT22;60138;55.808;37.078;2022-11-20T07:32:30;-0.54;75.34
70214;DHT22;60138;55.808;37.078;2022-11-20T07:34:55;-0.51;75.27
70214;DHT22;60138;55.808;37.078;2022-11-20T07:37:21;-0.50;75.27
70214;DHT22;60138;55.808;37.078;2022-11-20T07:39:47;-0.44;75.20
70214;DHT22;60138;55.808;37.078;2022-11-20T07:42:13;-0.44;75.20
70214;DHT22;60138;55.808;37.078;2022-11-20T07:44:39;-0.42;75.14
70214;DHT22;60138;55.808;37.078;2022-11-20T07:47:05;-0.38;75.15
70214;DHT22;60138;55.808;37.078;2022-11-20T07:49:31;-0.34;75.12
70214;DHT22;60138;55.808;37.078;2022-11-20T07:51:57;-0.27;75.16
70214;DHT22;60138;55.808;37.078;2022-11-20T07:54:23;-0.23;75.00
70214;DHT22;60138;55.808;37.078;2022-11-20T07:56:49;-0.21;74.73
70214;DHT22;60138;55.808;37.078;2022-11-20T07:59:15;-0.22;74.87
70214;DHT22;60138;55.808;37.078;2022-11-20T08:01:41;-0.20;74.65
70214;DHT22;60138;55.808;37.078;2022-11-20T08:04:07;-0.19;74.76
70214;DHT22;60138;55.808;37.078;2022-11-20T08:06:34;-0.15;74.56
70214;DHT22;60138;55.808;37.078;2022-11-20T08:08:59;-0.13;74.29
70214;DHT22;60138;55.808;37.078;2022-11-20T08:11:25;-0.13;74.36
70214;DHT22;60138;55.808;37.078;2022-11-20T08:13:51;-0.09;74.46
70214;DHT22;60138;55.808;37.078;2022-11-20T08:16:16;-0.08;74.50
70214;DHT22;60138;55.808;37.078;2022-11-20T08:18:42;-0.02;74.63
70214;DHT22;60138;55.808;37.078;2022-11-20T08:21:08;0.01;74.67
70214;DHT22;60138;55.808;37.078;2022-11-20T08:23:33;0.05;74.62
70214;DHT22;60138;55.808;37.078;2022-11-20T08:25:59;0.06;74.63
70214;DHT22;60138;55.808;37.078;2022-11-20T08:28:25;0.07;74.60
70214;DHT22;60138;55.808;37.078;2022-11-20T08:30:51;0.10;74.55
70214;DHT22;60138;55.808;37.078;2022-11-20T08:33:17;0.08;74.43
70214;DHT22;60138;55.808;37.078;2022-11-20T08:35:42;0.09;74.51
70214;DHT22;60138;55.808;37.078;2022-11-20T08:38:09;0.12;74.59
70214;DHT22;60138;55.808;37.078;2022-11-20T08:40:34;0.14;74.52
70214;DHT22;60138;55.808;37.078;2022-11-20T08:43:00;0.16;74.57
70214;DHT22;60138;55.808;37.078;2022-11-20T08:45:26;0.12;74.54
70214;DHT22;60138;55.808;37.078;2022-11-20T08:47:52;0.13;74.64
70214;DHT22;60138;55.808;37.078;2022-11-20T08:50:18;0.13;74.77
70214;DHT22;60138;55.808;37.078;2022-11-20T08:52:44;0.13;74.80
70214;DHT22;60138;55.808;37.078;2022-11-20T08:55:09;0.10;74.72
70214;DHT22;60138;55.808;37.078;2022-11-20T08:57:36;0.14;74.73
70214;DHT22;60138;55.808;37.078;2022-11-20T09:00:04;0.15;74.48
70214;DHT22;60138;55.808;37.078;2022-11-20T09:02:30;0.18;74.54
70214;DHT22;60138;55.808;37.078;2022-11-20T09:04:56;0.19;74.57
70214;DHT22;60138;55.808;37.078;2022-11-20T09:07:22;0.21;74.49
70214;DHT22;60138;55.808;37.078;2022-11-20T09:09:47;0.24;74.62
70214;DHT22;60138;55.808;37.078;2022-11-20T09:12:13;0.22;74.44
70214;DHT22;60138;55.808;37.078;2022-11-20T09:14:39;0.20;74.46
70214;DHT22;60138;55.808;37.078;2022-11-20T09:17:05;0.25;74.55
70214;DHT22;60138;55.808;37.078;2022-11-20T09:19:30;0.28;74.56
70214;DHT22;60138;55.808;37.078;2022-11-20T09:21:56;0.29;74.60
70214;DHT22;60138;55.808;37.078;2022-11-20T09:24:22;0.34;74.69
70214;DHT22;60138;55.808;37.078;2022-11-20T09:26:47;0.38;74.63
70214;DHT22;60138;55.808;37.078;2022-11-20T09:29:13;0.40;74.62
70214;DHT22;60138;55.808;37.078;2022-11-20T09:31:39;0.46;74.67
70214;DHT22;60138;55.808;37.078;2022-11-20T09:34:04;0.45;74.55
70214;DHT22;60138;55.808;37.078;2022-11-20T09:36:30;0.44;74.54
70214;DHT22;60138;55.808;37.078;2022-11-20T09:38:56;0.39;74.25
70214;DHT22;60138;55.808;37.078;2022-11-20T09:47:11;0.34;74.67
70214;DHT22;60138;55.808;37.078;2022-11-20T09:52:59;0.40;74.59
70214;DHT22;60138;55.808;37.078;2022-11-20T09:55:30;0.33;74.66
70214;DHT22;60138;55.808;37.078;2022-11-20T09:57:57;0.27;74.64
70214;DHT22;60138;55.808;37.078;2022-11-20T10:00:24;0.21;74.44
70214;DHT22;60138;55.808;37.078;2022-11-20T10:05:30;0.09;74.80
70214;DHT22;60138;55.808;37.078;2022-11-20T10:08:22;0.09;74.76
70214;DHT22;60138;55.808;37.078;2022-11-20T10:16:42;-0.02;74.71
70214;DHT22;60138;55.808;37.078;2022-11-20T10:24:23;-0.06;74.86
70214;DHT22;60138;55.808;37.078;2022-11-20T10:29:35;-0.10;74.33
70214;DHT22;60138;55.808;37.078;2022-11-20T10:32:07;-0.11;74.35
70214;DHT22;60138;55.808;37.078;2022-11-20T10:37:34;-0.24;73.37
70214;DHT22;60138;55.808;37.078;2022-11-20T10:43:00;-0.27;73.37
70214;DHT22;60138;55.808;37.078;2022-11-20T10:50:40;-0.34;73.24
70214;DHT22;60138;55.808;37.078;2022-11-20T10:56:49;-0.50;71.05
70214;DHT22;60138;55.808;37.078;2022-11-20T11:02:01;-0.50;72.68
70214;DHT22;60138;55.808;37.078;2022-11-20T11:04:56;-0.46;72.99
70214;DHT22;60138;55.808;37.078;2022-11-20T11:07:35;-0.44;72.67
70214;DHT22;60138;55.808;37.078;2022-11-20T11:10:18;-0.41;72.87
70214;DHT22;60138;55.808;37.078;2022-11-20T11:12:46;-0.40;73.23
70214;DHT22;60138;55.808;37.078;2022-11-20T11:15:39;-0.42;71.88
70214;DHT22;60138;55.808;37.078;2022-11-20T11:18:09;-0.47;72.38
70214;DHT22;60138;55.808;37.078;2022-11-20T11:20:35;-0.47;72.83
70214;DHT22;60138;55.808;37.078;2022-11-20T11:23:00;-0.47;72.54
70214;DHT22;60138;55.808;37.078;2022-11-20T11:25:32;-0.49;72.69
70214;DHT22;60138;55.808;37.078;2022-11-20T11:28:00;-0.51;72.90
70214;DHT22;60138;55.808;37.078;2022-11-20T11:30:27;-0.51;72.62
70214;DHT22;60138;55.808;37.078;2022-11-20T11:33:23;-0.52;72.32
70214;DHT22;60138;55.808;37.078;2022-11-20T11:35:55;-0.53;72.19
70214;DHT22;60138;55.808;37.078;2022-11-20T11:38:40;-0.52;72.37
70214;DHT22;60138;55.808;37.078;2022-11-20T11:41:10;-0.54;70.58
70214;DHT22;60138;55.808;37.078;2022-11-20T11:43:38;-0.58;71.22
70214;DHT22;60138;55.808;37.078;2022-11-20T11:46:52;-0.58;71.90
70214;DHT22;60138;55.808;37.078;2022-11-20T11:49:15;-0.59;71.26
70214;DHT22;60138;55.808;37.078;2022-11-20T11:54:50;-0.68;71.31
70214;DHT22;60138;55.808;37.078;2022-11-20T12:00:09;-0.77;71.01
70214;DHT22;60138;55.808;37.078;2022-11-20T12:03:07;-0.76;71.37
70214;DHT22;60138;55.808;37.078;2022-11-20T12:05:44;-0.77;71.13
70214;DHT22;60138;55.808;37.078;2022-11-20T12:11:35;-0.84;71.51
70214;DHT22;60138;55.808;37.078;2022-11-20T12:16:37;-0.95;71.79
70214;DHT22;60138;55.808;37.078;2022-11-20T12:19:09;-0.97;71.79
70214;DHT22;60138;55.808;37.078;2022-11-20T12:24:35;-1.08;69.97
70214;DHT22;60138;55.808;37.078;2022-11-20T12:30:27;-1.13;71.58
70214;DHT22;60138;55.808;37.078;2022-11-20T12:44:13;-1.19;71.15
70214;DHT22;60138;55.808;37.078;2022-11-20T12:46:45;-1.17;71.77
70214;DHT22;60138;55.808;37.078;2022-11-20T12:49:48;-1.18;71.67
70214;DHT22;60138;55.808;37.078;2022-11-20T12:52:38;-1.27;70.79
70214;DHT22;60138;55.808;37.078;2022-11-20T12:55:25;-1.26;71.05
70214;DHT22;60138;55.808;37.078;2022-11-20T13:01:00;-1.27;71.58
70214;DHT22;60138;55.808;37.078;2022-11-20T13:03:34;-1.25;71.80
70214;DHT22;60138;55.808;37.078;2022-11-20T13:06:12;-1.24;71.48
70214;DHT22;60138;55.808;37.078;2022-11-20T13:08:40;-1.27;70.93
70214;DHT22;60138;55.808;37.078;2022-11-20T13:16:30;-1.28;71.35
70214;DHT22;60138;55.808;37.078;2022-11-20T13:19:02;-1.30;70.91
70214;DHT22;60138;55.808;37.078;2022-11-20T13:21:40;-1.35;70.55
70214;DHT22;60138;55.808;37.078;2022-11-20T13:24:07;-1.40;70.29
70214;DHT22;60138;55.808;37.078;2022-11-20T13:26:33;-1.40;71.03
70214;DHT22;60138;55.808;37.078;2022-11-20T13:29:07;-1.40;71.16
70214;DHT22;60138;55.808;37.078;2022-11-20T13:31:36;-1.40;71.32
70214;DHT22;60138;55.808;37.078;2022-11-20T13:34:06;-1.44;70.14
70214;DHT22;60138;55.808;37.078;2022-11-20T13:36:32;-1.47;71.00
70214;DHT22;60138;55.808;37.078;2022-11-20T13:38:58;-1.41;71.76
70214;DHT22;60138;55.808;37.078;2022-11-20T13:41:26;-1.38;72.06
70214;DHT22;60138;55.808;37.078;2022-11-20T13:43:57;-1.35;71.95
70214;DHT22;60138;55.808;37.078;2022-11-20T13:46:23;-1.39;71.75
70214;DHT22;60138;55.808;37.078;2022-11-20T13:49:10;-1.40;71.98
70214;DHT22;60138;55.808;37.078;2022-11-20T13:51:46;-1.41;71.99
70214;DHT22;60138;55.808;37.078;2022-11-20T13:54:22;-1.45;70.03
70214;DHT22;60138;55.808;37.078;2022-11-20T13:59:52;-1.47;71.10
70214;DHT22;60138;55.808;37.078;2022-11-20T14:02:23;-1.54;70.00
70214;DHT22;60138;55.808;37.078;2022-11-20T14:04:52;-1.55;71.16
70214;DHT22;60138;55.808;37.078;2022-11-20T14:07:22;-1.57;70.58
70214;DHT22;60138;55.808;37.078;2022-11-20T14:09:52;-1.59;70.37
70214;DHT22;60138;55.808;37.078;2022-11-20T14:12:21;-1.59;70.46
70214;DHT22;60138;55.808;37.078;2022-11-20T14:14:49;-1.56;71.08
70214;DHT22;60138;55.808;37.078;2022-11-20T14:19:52;-1.54;71.19
70214;DHT22;60138;55.808;37.078;2022-11-20T14:22:21;-1.53;70.87
70214;DHT22;60138;55.808;37.078;2022-11-20T14:24:48;-1.50;71.04
70214;DHT22;60138;55.808;37.078;2022-11-20T14:27:20;-1.55;70.43
70214;DHT22;60138;55.808;37.078;2022-11-20T14:29:47;-1.57;70.70
70214;DHT22;60138;55.808;37.078;2022-11-20T14:32:17;-1.62;70.44
70214;DHT22;60138;55.808;37.078;2022-11-20T14:34:45;-1.61;70.62
70214;DHT22;60138;55.808;37.078;2022-11-20T14:37:21;-1.60;71.13
70214;DHT22;60138;55.808;37.078;2022-11-20T14:39:53;-1.62;69.11
70214;DHT22;60138;55.808;37.078;2022-11-20T14:42:25;-1.64;70.19
70214;DHT22;60138;55.808;37.078;2022-11-20T14:44:55;-1.63;70.50
70214;DHT22;60138;55.808;37.078;2022-11-20T14:47:23;-1.62;70.55
70214;DHT22;60138;55.808;37.078;2022-11-20T14:49:51;-1.61;70.71
70214;DHT22;60138;55.808;37.078;2022-11-20T14:52:26;-1.56;71.19
70214;DHT22;60138;55.808;37.078;2022-11-20T14:54:55;-1.50;71.13
70214;DHT22;60138;55.808;37.078;2022-11-20T14:57:30;-1.49;70.58
70214;DHT22;60138;55.808;37.078;2022-11-20T15:02:48;-1.61;69.65
70214;DHT22;60138;55.808;37.078;2022-11-20T15:05:15;-1.71;69.23
70214;DHT22;60138;55.808;37.078;2022-11-20T15:07:44;-1.72;70.37
70214;DHT22;60138;55.808;37.078;2022-11-20T15:10:21;-1.74;70.57
70214;DHT22;60138;55.808;37.078;2022-11-20T15:12:53;-1.75;69.84
70214;DHT22;60138;55.808;37.078;2022-11-20T15:15:35;-1.75;70.77
70214;DHT22;60138;55.808;37.078;2022-11-20T15:18:03;-1.79;69.71
70214;DHT22;60138;55.808;37.078;2022-11-20T15:20:31;-1.79;70.70
70214;DHT22;60138;55.808;37.078;2022-11-20T15:22:57;-1.79;70.86
70214;DHT22;60138;55.808;37.078;2022-11-20T15:25:23;-1.76;71.19
70214;DHT22;60138;55.808;37.078;2022-11-20T15:27:59;-1.73;71.45
70214;DHT22;60138;55.808;37.078;2022-11-20T15:30:25;-1.68;71.64
70214;DHT22;60138;55.808;37.078;2022-11-20T15:32:51;-1.65;71.16
70214;DHT22;60138;55.808;37.078;2022-11-20T15:35:17;-1.67;70.93
70214;DHT22;60138;55.808;37.078;2022-11-20T15:37:43;-1.63;71.32
70214;DHT22;60138;55.808;37.078;2022-11-20T15:40:09;-1.63;70.77
70214;DHT22;60138;55.808;37.078;2022-11-20T15:42:35;-1.71;69.93
70214;DHT22;60138;55.808;37.078;2022-11-20T15:45:04;-1.76;69.98
70214;DHT22;60138;55.808;37.078;2022-11-20T15:47:33;-1.83;69.99
70214;DHT22;60138;55.808;37.078;2022-11-20T15:50:00;-1.83;70.43
70214;DHT22;60138;55.808;37.078;2022-11-20T15:52:26;-1.80;70.92
70214;DHT22;60138;55.808;37.078;2022-11-20T15:54:51;-1.76;71.06
70214;DHT22;60138;55.808;37.078;2022-11-20T15:57:17;-1.75;70.57
70214;DHT22;60138;55.808;37.078;2022-11-20T15:59:43;-1.78;70.55
70214;DHT22;60138;55.808;37.078;2022-11-20T16:02:12;-1.75;71.16
70214;DHT22;60138;55.808;37.078;2022-11-20T16:04:38;-1.74;71.44
70214;DHT22;60138;55.808;37.078;2022-11-20T16:07:04;-1.70;71.58
70214;DHT22;60138;55.808;37.078;2022-11-20T16:09:30;-1.68;71.60
70214;DHT22;60138;55.808;37.078;2022-11-20T16:11:56;-1.68;71.51
70214;DHT22;60138;55.808;37.078;2022-11-20T16:14:22;-1.63;71.80
70214;DHT22;60138;55.808;37.078;2022-11-20T16:16:47;-1.58;71.86
70214;DHT22;60138;55.808;37.078;2022-11-20T16:19:14;-1.60;70.48
70214;DHT22;60138;55.808;37.078;2022-11-20T16:21:40;-1.71;69.50
70214;DHT22;60138;55.808;37.078;2022-11-20T16:24:07;-1.77;69.08
70214;DHT22;60138;55.808;37.078;2022-11-20T16:26:33;-1.84;69.78
70214;DHT22;60138;55.808;37.078;2022-11-20T16:29:00;-1.86;70.07
70214;DHT22;60138;55.808;37.078;2022-11-20T16:31:26;-1.89;69.74
70214;DHT22;60138;55.808;37.078;2022-11-20T16:33:53;-1.92;70.11
70214;DHT22;60138;55.808;37.078;2022-11-20T16:36:20;-1.93;70.13
70214;DHT22;60138;55.808;37.078;2022-11-20T16:38:46;-1.91;70.61
70214;DHT22;60138;55.808;37.078;2022-11-20T16:41:17;-1.88;70.63
70214;DHT22;60138;55.808;37.078;2022-11-20T16:43:56;-1.89;70.19
70214;DHT22;60138;55.808;37.078;2022-11-20T16:46:24;-1.88;70.35
70214;DHT22;60138;55.808;37.078;2022-11-20T16:48:55;-1.87;70.47
70214;DHT22;60138;55.808;37.078;2022-11-20T16:51:21;-1.80;70.97
70214;DHT22;60138;55.808;37.078;2022-11-20T16:53:47;-1.75;71.22
70214;DHT22;60138;55.808;37.078;2022-11-20T16:56:16;-1.71;70.68
70214;DHT22;60138;55.808;37.078;2022-11-20T16:58:44;-1.71;70.61